Time;durP1;ratioP1;P1;durP2;ratioP2;P2;SDS_P1;SDS_P2;PMS_P1;PMS_P2;Temp;Humidity;BMP_temperature;BMP_pressure;BME280_temperature;BME280_humidity;BME280_pressure;Samples;Min_cycle;Max_cycle;Signal;HPM_P1;HPM_P2
2022/10/20 00:01:51;;;;;;;7.00;4.80;;;;;;;18.90;39.31;100883.32;101576;1340;69999;-88
2022/10/20 00:04:16;;;;;;;6.80;4.80;;;;;;;18.90;39.36;100885.00;101648;1340;70001;-88
2022/10/20 00:06:42;;;;;;;5.40;4.60;;;;;;;18.90;39.39;100886.54;101445;1341;73595;-91
2022/10/20 00:09:08;;;;;;;7.00;4.90;;;;;;;18.90;39.36;100888.67;101400;1337;70019;-88
2022/10/20 00:11:33;;;;;;;5.40;4.20;;;;;;;18.89;39.38;100892.80;101775;1343;70394;-88
2022/10/20 00:13:59;;;;;;;5.50;4.20;;;;;;;18.89;39.30;100898.27;101516;1332;68140;-88
2022/10/20 00:16:26;;;;;;;6.10;4.90;;;;;;;18.90;39.25;100898.56;101753;1332;67739;-88
2022/10/20 00:18:51;;;;;;;6.40;4.30;;;;;;;18.89;39.35;100897.95;101572;1341;67571;-88
2022/10/20 00:21:22;;;;;;;8.10;4.50;;;;;;;18.90;39.29;100897.91;101407;1346;69923;-88
2022/10/20 00:23:48;;;;;;;;;;;;;;;18.90;39.18;100894.64;101716;1337;74713;-88
2022/10/20 00:26:18;;;;;;;5.60;4.20;;;;;;;18.86;39.23;100897.55;101770;1340;68535;-88
2022/10/20 00:28:44;;;;;;;7.10;4.30;;;;;;;18.87;39.18;100902.49;101533;1331;72554;-88
2022/10/20 00:31:10;;;;;;;8.90;4.30;;;;;;;18.87;39.20;100903.77;101573;1344;68036;-87
2022/10/20 00:33:35;;;;;;;8.00;4.60;;;;;;;18.87;39.16;100904.08;101517;1344;69993;-92
2022/10/20 00:36:02;;;;;;;8.40;4.10;;;;;;;18.87;39.02;100899.59;101388;1347;70041;-87
2022/10/20 00:38:27;;;;;;;7.10;4.60;;;;;;;18.87;39.14;100902.14;101569;1343;69926;-88
2022/10/20 00:40:53;;;;;;;5.50;3.80;;;;;;;18.87;39.06;100902.09;101732;1337;68055;-88
2022/10/20 00:43:19;;;;;;;6.40;4.50;;;;;;;18.87;38.97;100907.14;101492;1345;67734;-88
2022/10/20 00:45:51;;;;;;;4.80;3.60;;;;;;;18.86;39.04;100906.52;101605;1339;70073;-88
2022/10/20 00:48:18;;;;;;;6.50;3.80;;;;;;;18.86;39.00;100911.73;101451;1339;81966;-88
2022/10/20 00:50:52;;;;;;;6.00;3.80;;;;;;;18.86;38.89;100912.54;101613;1337;73663;-88
2022/10/20 00:53:17;;;;;;;6.60;4.20;;;;;;;18.86;38.89;100915.11;101554;1345;67628;-88
2022/10/20 00:55:45;;;;;;;7.40;3.80;;;;;;;18.86;38.88;100911.92;101402;1340;68447;-88
2022/10/20 00:58:10;;;;;;;5.40;4.00;;;;;;;18.86;38.69;100915.75;101536;1344;73704;-88
2022/10/20 01:00:37;;;;;;;5.40;3.60;;;;;;;18.86;38.64;100921.51;101356;1346;68506;-93
2022/10/20 01:03:03;;;;;;;5.60;3.80;;;;;;;18.86;38.68;100930.02;101504;1340;67957;-88
2022/10/20 01:05:29;;;;;;;6.40;3.90;;;;;;;18.86;38.80;100930.48;101471;1341;67709;-88
2022/10/20 01:07:54;;;;;;;5.80;3.70;;;;;;;18.86;38.64;100926.23;101758;1344;68516;-88
2022/10/20 01:10:20;;;;;;;7.00;4.00;;;;;;;18.86;38.61;100922.58;101464;1344;69780;-88
2022/10/20 01:13:44;;;;;;;6.80;3.90;;;;;;;18.86;38.52;100928.27;101409;1345;72618;-88
2022/10/20 01:16:48;;;;;;;6.50;3.70;;;;;;;18.84;38.49;100925.30;100991;1343;70043;-87
2022/10/20 01:19:23;;;;;;;5.70;3.60;;;;;;;18.84;38.42;100924.38;101752;1329;68215;-88
2022/10/20 01:21:57;;;;;;;7.00;3.90;;;;;;;18.84;38.47;100923.90;101815;1344;73743;-88
2022/10/20 01:24:48;;;;;;;5.90;3.40;;;;;;;18.84;38.46;100924.93;101505;1339;81855;-91
2022/10/20 01:27:30;;;;;;;6.80;3.50;;;;;;;18.83;38.27;100924.02;101276;1345;72413;-87
2022/10/20 01:30:09;;;;;;;7.00;3.70;;;;;;;18.83;38.28;100926.64;101690;1344;69862;-88
2022/10/20 01:32:50;;;;;;;4.90;3.40;;;;;;;18.83;38.17;100930.32;101582;1338;69737;-88
2022/10/20 01:35:34;;;;;;;5.10;3.50;;;;;;;18.82;38.22;100929.10;101787;1344;73782;-88
2022/10/20 01:38:24;;;;;;;5.50;3.40;;;;;;;18.82;38.12;100933.52;101441;1347;83038;-88
2022/10/20 01:40:53;;;;;;;5.20;3.50;;;;;;;18.82;38.08;100940.03;101681;1344;71609;-88
2022/10/20 01:43:20;;;;;;;4.60;3.50;;;;;;;18.81;38.15;100942.94;101525;1345;69797;-88
2022/10/20 01:45:47;;;;;;;5.80;4.00;;;;;;;18.82;37.95;100948.05;101395;1343;68443;-87
2022/10/20 01:48:13;;;;;;;6.20;3.60;;;;;;;18.82;37.98;100950.84;101512;1344;73498;-87
2022/10/20 01:50:38;;;;;;;5.70;3.70;;;;;;;18.82;37.98;100953.49;101522;1340;68042;-88
2022/10/20 01:53:04;;;;;;;4.60;3.20;;;;;;;18.82;37.96;100951.46;101667;1337;69072;-88
2022/10/20 01:55:30;;;;;;;8.40;3.80;;;;;;;18.82;37.96;100950.13;101623;1338;70035;-88
2022/10/20 01:57:58;;;;;;;6.00;3.40;;;;;;;18.81;37.83;100948.54;101368;1347;69910;-88
2022/10/20 02:00:24;;;;;;;8.80;3.50;;;;;;;18.81;37.90;100949.83;101722;1345;68455;-90
2022/10/20 02:03:03;;;;;;;5.30;3.30;;;;;;;18.81;37.81;100954.34;101494;1344;70034;-88
2022/10/20 02:05:47;;;;;;;5.40;3.40;;;;;;;18.80;37.73;100953.16;101776;1338;72572;-88
2022/10/20 02:08:12;;;;;;;5.20;3.40;;;;;;;18.81;37.71;100960.20;101736;1344;68562;-87
2022/10/20 02:10:44;;;;;;;4.20;3.40;;;;;;;18.81;37.71;100963.73;101777;1337;68806;-88
2022/10/20 02:13:10;;;;;;;6.40;3.40;;;;;;;18.81;37.69;100965.56;101512;1338;73889;-88
2022/10/20 02:15:36;;;;;;;7.50;3.60;;;;;;;18.81;37.66;100969.07;101723;1341;67434;-88
2022/10/20 02:18:03;;;;;;;4.80;3.60;;;;;;;18.81;37.66;100974.13;101365;1337;68280;-88
2022/10/20 02:20:29;;;;;;;4.50;3.00;;;;;;;18.81;37.70;100977.17;101495;1340;70012;-88
2022/10/20 02:22:55;;;;;;;4.10;3.30;;;;;;;18.81;37.61;100987.27;101524;1344;68952;-88
2022/10/20 02:25:20;;;;;;;5.40;3.60;;;;;;;18.80;37.60;100985.85;101591;1341;67753;-88
2022/10/20 02:27:46;;;;;;;6.00;3.00;;;;;;;18.81;37.46;100986.31;101705;1340;69929;-88
2022/10/20 02:30:14;;;;;;;4.70;3.50;;;;;;;18.80;37.47;100987.54;101472;1344;70005;-92
2022/10/20 02:32:40;;;;;;;6.00;3.50;;;;;;;18.80;37.55;100988.19;101434;1340;68076;-88
2022/10/20 02:35:10;;;;;;;6.10;3.10;;;;;;;18.80;37.42;100990.36;101729;1346;70118;-88
2022/10/20 02:37:36;;;;;;;10.70;3.10;;;;;;;18.79;37.45;100991.74;101534;1340;83224;-88
2022/10/20 02:40:01;;;;;;;4.70;3.10;;;;;;;18.79;37.32;100997.45;101385;1345;69152;-88
2022/10/20 02:42:27;;;;;;;5.50;3.00;;;;;;;18.79;37.39;101002.50;101422;1340;69914;-88
2022/10/20 02:44:54;;;;;;;6.40;3.40;;;;;;;18.79;37.39;100998.48;101337;1340;69908;-87
2022/10/20 02:47:21;;;;;;;6.60;3.30;;;;;;;18.79;37.41;100997.14;101402;1339;68185;-87
2022/10/20 02:49:47;;;;;;;7.20;3.20;;;;;;;18.79;37.29;101001.46;101468;1341;68342;-88
2022/10/20 02:52:12;;;;;;;4.70;2.90;;;;;;;18.79;37.32;101004.42;101476;1341;69892;-88
2022/10/20 02:54:38;;;;;;;6.90;3.20;;;;;;;18.78;37.27;101007.42;101532;1344;68369;-88
2022/10/20 02:57:04;;;;;;;4.80;3.20;;;;;;;18.78;37.17;101004.93;101504;1344;73536;-92
2022/10/20 02:59:29;;;;;;;4.70;3.00;;;;;;;18.78;37.20;101017.27;101344;1340;69997;-88
2022/10/20 03:01:55;;;;;;;4.10;2.90;;;;;;;18.78;37.18;101015.84;101691;1337;67729;-88
2022/10/20 03:04:21;;;;;;;4.80;2.90;;;;;;;18.78;37.17;101015.75;101495;1340;67358;-88
2022/10/20 03:06:46;;;;;;;4.00;2.90;;;;;;;18.79;37.12;101016.52;101478;1345;68773;-88
2022/10/20 03:09:12;;;;;;;12.00;3.90;;;;;;;18.79;37.19;101016.27;101473;1345;82276;-89
2022/10/20 03:11:37;;;;;;;9.20;3.90;;;;;;;18.79;37.10;101015.39;101388;1345;70002;-88
2022/10/20 03:14:03;;;;;;;7.80;3.40;;;;;;;18.78;37.11;101017.19;101647;1341;68771;-88
2022/10/20 03:16:28;;;;;;;10.90;3.20;;;;;;;18.78;37.04;101018.23;101475;1337;67783;-88
2022/10/20 03:18:54;;;;;;;22.70;18.40;;;;;;;18.77;36.99;101018.94;101718;1345;68016;-88
2022/10/20 03:21:20;;;;;;;24.80;18.40;;;;;;;18.78;37.17;101026.55;101581;1343;71551;-88
2022/10/20 03:23:46;;;;;;;18.40;11.80;;;;;;;18.81;37.22;101029.70;101509;1344;67735;-88
2022/10/20 03:26:11;;;;;;;14.50;10.80;;;;;;;18.82;37.25;101032.79;101604;1337;67849;-88
2022/10/20 03:28:38;;;;;;;12.20;8.60;;;;;;;18.82;37.24;101035.44;101554;1344;67670;-88
2022/10/20 03:31:03;;;;;;;11.40;7.50;;;;;;;18.80;37.15;101042.08;101697;1337;68010;-88
2022/10/20 03:33:29;;;;;;;10.70;6.30;;;;;;;18.78;36.99;101045.46;101560;1337;70049;-88
2022/10/20 03:35:55;;;;;;;12.40;5.30;;;;;;;18.75;36.91;101056.13;101569;1337;70028;-92
2022/10/20 03:38:21;;;;;;;8.70;5.10;;;;;;;18.73;36.84;101055.27;101590;1341;67599;-88
2022/10/20 03:40:46;;;;;;;10.40;5.00;;;;;;;18.71;36.76;101057.87;101765;1343;69938;-88
2022/10/20 03:43:14;;;;;;;11.60;4.40;;;;;;;18.70;36.76;101060.81;101738;1342;69994;-88
2022/10/20 03:45:43;;;;;;;11.70;3.90;;;;;;;18.69;36.77;101063.09;101433;1347;69877;-88
2022/10/20 03:48:09;;;;;;;19.60;4.20;;;;;;;18.69;36.86;101067.89;101666;1341;68021;-89
2022/10/20 03:50:37;;;;;;;9.60;4.10;;;;;;;18.71;36.94;101072.36;101565;1344;67943;-88
2022/10/20 03:53:02;;;;;;;14.00;4.00;;;;;;;18.71;37.13;101077.40;101624;1344;83020;-87
2022/10/20 03:55:28;;;;;;;6.10;3.50;;;;;;;18.71;37.31;101078.48;101401;1345;70028;-88
2022/10/20 03:57:54;;;;;;;10.80;3.90;;;;;;;18.71;37.37;101078.53;101384;1344;67686;-88
2022/10/20 04:00:19;;;;;;;13.80;4.40;;;;;;;18.71;37.46;101080.62;101733;1337;69184;-88
2022/10/20 04:02:45;;;;;;;6.40;3.70;;;;;;;18.72;37.46;101079.22;101459;1344;68454;-91
2022/10/20 04:05:15;;;;;;;12.20;4.00;;;;;;;18.72;37.48;101082.63;101433;1344;72596;-88
2022/10/20 04:07:41;;;;;;;12.00;3.90;;;;;;;18.73;37.39;101080.20;101726;1337;70100;-88
2022/10/20 04:10:07;;;;;;;9.20;3.70;;;;;;;18.73;37.44;101086.36;101438;1347;69954;-88
2022/10/20 04:12:32;;;;;;;8.40;3.50;;;;;;;18.74;37.25;101091.62;101737;1340;69921;-88
2022/10/20 04:14:58;;;;;;;8.10;3.50;;;;;;;18.74;37.30;101094.80;101741;1337;68012;-88
2022/10/20 04:17:23;;;;;;;11.20;4.10;;;;;;;18.75;37.25;101094.77;101713;1338;69915;-87
2022/10/20 04:19:49;;;;;;;7.60;3.70;;;;;;;18.75;37.30;101099.30;101513;1351;70008;-88
2022/10/20 04:22:15;;;;;;;7.50;3.20;;;;;;;18.76;37.24;101100.55;101475;1337;70034;-88
2022/10/20 04:24:40;;;;;;;9.00;3.80;;;;;;;18.76;37.27;101104.02;101714;1341;69067;-89
2022/10/20 04:27:06;;;;;;;8.40;3.50;;;;;;;18.76;37.12;101104.88;101765;1345;69889;-88
2022/10/20 04:29:31;;;;;;;9.00;3.40;;;;;;;18.76;37.18;101100.95;101740;1335;68072;-88
2022/10/20 04:31:57;;;;;;;6.70;3.90;;;;;;;18.75;37.06;101108.03;101704;1340;70270;-88
2022/10/20 04:34:23;;;;;;;7.30;3.50;;;;;;;18.77;37.37;101114.90;101630;1340;83436;-88
2022/10/20 04:36:49;;;;;;;7.90;3.80;;;;;;;18.79;37.37;101115.69;101629;1346;68193;-87
2022/10/20 04:39:14;;;;;;;11.40;3.80;;;;;;;18.81;37.33;101119.44;101688;1341;69843;-87
2022/10/20 04:41:41;;;;;;;9.20;3.60;;;;;;;18.81;37.33;101125.05;101612;1340;68902;-92
2022/10/20 04:44:07;;;;;;;13.00;3.70;;;;;;;18.81;37.16;101128.41;101680;1335;69854;-88
2022/10/20 04:46:33;;;;;;;9.00;3.50;;;;;;;18.81;37.11;101135.70;101590;1345;69943;-86
2022/10/20 04:48:58;;;;;;;8.80;3.50;;;;;;;18.81;37.07;101143.80;101578;1345;69900;-87
2022/10/20 04:51:24;;;;;;;8.80;3.40;;;;;;;18.81;37.03;101150.64;101782;1342;68005;-87
2022/10/20 04:53:49;;;;;;;10.60;4.00;;;;;;;18.80;36.97;101153.73;101747;1341;69973;-88
2022/10/20 04:56:18;;;;;;;6.30;3.40;;;;;;;18.80;36.94;101156.69;101855;1328;67652;-87
2022/10/20 04:58:54;;;;;;;4.10;3.00;;;;;;;18.78;36.83;101160.02;101729;1340;68256;-88
2022/10/20 05:01:20;;;;;;;12.90;3.30;;;;;;;18.78;36.81;101161.25;101864;1344;68086;-89
2022/10/20 05:03:46;;;;;;;6.80;3.20;;;;;;;18.77;36.81;101160.35;101785;1347;68219;-88
2022/10/20 05:06:12;;;;;;;8.70;3.20;;;;;;;18.76;36.70;101158.96;101759;1344;70187;-88
2022/10/20 05:08:37;;;;;;;7.00;3.40;;;;;;;18.74;36.75;101155.27;101875;1327;67749;-91
2022/10/20 05:11:03;;;;;;;8.70;3.40;;;;;;;18.73;36.66;101161.45;101575;1335;69941;-87
2022/10/20 05:13:29;;;;;;;10.30;3.80;;;;;;;18.71;36.56;101169.67;101427;1336;69900;-88
2022/10/20 05:15:54;;;;;;;6.40;4.30;;;;;;;18.71;36.69;101170.44;101706;1329;68154;-88
2022/10/20 05:18:20;;;;;;;10.10;5.20;;;;;;;18.72;36.76;101183.04;101751;1344;68193;-90
2022/10/20 05:20:45;;;;;;;9.30;4.80;;;;;;;18.73;36.77;101196.27;101582;1345;69430;-91
2022/10/20 05:23:11;;;;;;;9.60;5.00;;;;;;;18.74;36.91;101200.13;101714;1344;70306;-91
2022/10/20 10:07:39;;;;;;;13.40;5.80;;;;;;;18.70;36.42;101427.55;91266;1321;67442;-90
2022/10/20 10:16:40;;;;;;;15.50;6.20;;;;;;;18.76;36.45;101428.94;101951;1322;83186;-90
2022/10/20 10:19:06;;;;;;;14.20;5.90;;;;;;;18.78;36.55;101430.61;101591;1312;72672;-91
2022/10/20 10:22:02;;;;;;;12.50;5.50;;;;;;;18.81;36.49;101428.72;101694;1312;69974;-90
2022/10/20 10:24:45;;;;;;;21.50;6.10;;;;;;;18.83;36.57;101427.68;101847;1309;67624;-91
2022/10/20 10:30:26;;;;;;;14.20;7.50;;;;;;;18.84;36.58;101421.83;95694;1318;80381;-92
2022/10/20 10:32:53;;;;;;;17.60;8.30;;;;;;;18.86;36.66;101423.83;101708;1328;73505;-89
2022/10/20 10:35:23;;;;;;;17.20;8.40;;;;;;;18.88;36.67;101424.63;101620;1345;67789;-93
2022/10/20 10:37:54;;;;;;;;;;;;;;;18.89;36.68;101416.34;101949;1337;68361;-91
2022/10/20 10:40:31;;;;;;;14.50;6.70;;;;;;;18.87;36.72;101414.98;101788;1327;74525;-92
2022/10/20 10:49:34;;;;;;;13.90;5.70;;;;;;;18.91;36.73;101405.56;102357;1323;67491;-93
2022/10/20 10:52:55;;;;;;;14.90;5.90;;;;;;;18.91;36.71;101405.56;102464;1321;66865;-92
2022/10/20 10:58:55;;;;;;;13.60;5.40;;;;;;;18.90;36.74;101387.84;90040;1315;80717;-92
2022/10/20 11:05:01;;;;;;;12.40;6.00;;;;;;;18.92;36.73;101377.13;97805;1309;67803;-91
2022/10/20 11:07:51;;;;;;;13.30;5.50;;;;;;;18.94;36.77;101374.27;102171;1320;68298;-93
2022/10/20 11:10:51;;;;;;;13.40;5.00;;;;;;;18.95;36.79;101373.59;102220;1316;74598;-91
2022/10/20 11:13:46;;;;;;;17.70;5.10;;;;;;;18.95;36.82;101369.73;102400;1320;82903;-92
2022/10/20 11:16:56;;;;;;;19.30;3.70;;;;;;;18.95;36.65;101369.36;102134;1314;71259;-92
